createdAt,value
2022-10-29T00:02:51.772Z,95.42
2022-10-29T00:06:03.112Z,95.22
2022-10-29T00:09:15.357Z,94.99
2022-10-29T00:12:21.466Z,94.01
2022-10-29T00:15:27.678Z,94.41
2022-10-29T00:18:34.286Z,94.47
2022-10-29T00:21:41.936Z,94.77
2022-10-29T00:24:51.150Z,94.78
2022-10-29T00:27:59.879Z,94.73
2022-10-29T00:31:09.569Z,94.79
2022-10-29T00:34:16.243Z,93.83
2022-10-29T00:37:22.616Z,94.13
2022-10-29T00:40:32.586Z,94.21
2022-10-29T00:43:39.251Z,94.72
2022-10-29T00:46:53.163Z,94.79
2022-10-29T00:50:04.835Z,95.77
2022-10-29T00:53:22.624Z,95.91
2022-10-29T00:56:44.489Z,95.93
2022-10-29T00:59:54.204Z,95.55
2022-10-29T01:02:57.345Z,95.67
2022-10-29T01:06:01.981Z,95.76
2022-10-29T01:09:04.791Z,96.36
2022-10-29T01:12:21.764Z,96.24
2022-10-29T01:15:31.780Z,96.98
2022-10-29T01:18:43.267Z,96.99
2022-10-29T01:21:50.080Z,97.17
2022-10-29T01:25:20.969Z,96.71
2022-10-29T01:28:38.796Z,96.83
2022-10-29T01:31:51.298Z,97.07
2022-10-29T01:35:01.695Z,97.20
2022-10-29T01:38:15.430Z,97.34
2022-10-29T01:41:24.648Z,97.62
2022-10-29T01:44:34.855Z,97.53
2022-10-29T01:47:43.481Z,97.92
2022-10-29T01:50:50.806Z,97.63
2022-10-29T01:53:54.872Z,97.22
2022-10-29T01:56:58.496Z,97.42
2022-10-29T02:00:04.801Z,97.68
2022-10-29T02:03:21.665Z,96.91
2022-10-29T02:06:37.416Z,97.85
2022-10-29T02:09:53.936Z,98.19
2022-10-29T02:12:58.841Z,98.19
2022-10-29T02:16:07.535Z,98.43
2022-10-29T02:19:11.551Z,98.15
2022-10-29T02:22:14.220Z,98.72
2022-10-29T02:25:18.269Z,99.29
2022-10-29T02:31:28.815Z,98.98
2022-10-29T02:34:32.814Z,98.77
2022-10-29T02:37:35.503Z,98.92
2022-10-29T02:40:38.160Z,99.06
2022-10-29T02:43:40.791Z,99.37
2022-10-29T02:46:43.380Z,99.41
2022-10-29T02:49:47.357Z,99.76
2022-10-29T02:52:50.031Z,99.60
2022-10-29T02:55:52.654Z,99.33
2022-10-29T02:58:55.322Z,99.40
2022-10-29T03:01:58.038Z,98.99
2022-10-29T03:05:02.313Z,99.19
2022-10-29T03:08:05.291Z,99.17
2022-10-29T03:11:08.339Z,98.96
2022-10-29T03:14:10.975Z,99.10
2022-10-29T03:17:13.604Z,99.24
2022-10-29T03:20:18.188Z,98.77
2022-10-29T03:23:20.859Z,98.44
2022-10-29T03:26:23.528Z,98.64
2022-10-29T03:29:26.108Z,98.57
2022-10-29T03:32:28.733Z,98.80
2022-10-29T03:35:32.977Z,98.78
2022-10-29T03:38:36.117Z,98.98
2022-10-29T03:41:38.751Z,98.92
2022-10-29T03:44:41.444Z,98.51
2022-10-29T03:47:44.070Z,98.40
2022-10-29T03:50:55.003Z,98.79
2022-10-29T03:53:57.623Z,98.13
2022-10-29T03:57:00.326Z,98.24
2022-10-29T04:00:04.776Z,98.24
2022-10-29T04:03:07.493Z,98.12
2022-10-29T04:06:16.341Z,98.71
2022-10-29T04:09:19.011Z,98.76
2022-10-29T04:12:21.672Z,99.41
2022-10-29T04:15:24.300Z,99.27
2022-10-29T04:18:26.947Z,99.19
2022-10-29T04:23:54.386Z,99.77
2022-10-29T04:28:46.098Z,99.63
2022-10-29T04:31:39.700Z,99.53
2022-10-29T04:34:42.379Z,99.09
2022-10-29T04:37:46.368Z,99.00
2022-10-29T04:40:49.552Z,99.17
2022-10-29T04:43:52.179Z,98.94
2022-10-29T04:46:54.825Z,98.63
2022-10-29T04:49:57.417Z,98.80
2022-10-29T04:53:02.063Z,97.94
2022-10-29T04:56:05.661Z,97.91
2022-10-29T04:59:08.319Z,98.20
2022-10-29T05:02:11.535Z,97.44
2022-10-29T05:05:14.718Z,97.99
2022-10-29T05:08:18.953Z,98.43
2022-10-29T05:11:22.000Z,98.57
2022-10-29T05:14:24.626Z,97.42
2022-10-29T05:17:27.285Z,97.53
2022-10-29T05:20:30.428Z,96.71
2022-10-29T05:23:34.541Z,96.36
2022-10-29T05:26:37.139Z,96.34
2022-10-29T05:29:39.747Z,95.94
2022-10-29T05:32:42.378Z,96.60
2022-10-29T05:35:45.574Z,97.23
2022-10-29T05:38:49.543Z,96.90
2022-10-29T05:41:52.301Z,96.91
2022-10-29T05:44:54.902Z,96.70
2022-10-29T05:47:58.513Z,96.85
2022-10-29T05:51:01.233Z,96.95
2022-10-29T05:54:06.044Z,96.55
2022-10-29T05:57:08.672Z,97.36
2022-10-29T06:00:12.252Z,97.83
2022-10-29T06:03:17.482Z,96.65
2022-10-29T06:06:20.310Z,97.10
2022-10-29T06:09:24.352Z,96.27
2022-10-29T06:12:30.019Z,96.34
2022-10-29T06:15:35.028Z,97.40
2022-10-29T06:18:37.624Z,97.28
2022-10-29T06:21:40.281Z,97.29
2022-10-29T06:24:44.312Z,97.62
2022-10-29T06:27:46.930Z,97.28
2022-10-29T06:30:51.283Z,96.57
2022-10-29T06:33:55.688Z,96.48
2022-10-29T06:36:58.659Z,95.83
2022-10-29T06:40:02.863Z,96.02
2022-10-29T06:43:07.379Z,96.24
2022-10-29T06:46:10.086Z,96.75
2022-10-29T06:49:12.703Z,96.80
2022-10-29T06:52:15.358Z,96.76
2022-10-29T06:55:19.751Z,96.44
2022-10-29T06:58:22.802Z,95.91
2022-10-29T07:01:30.762Z,96.59
2022-10-29T07:04:34.491Z,96.55
2022-10-29T07:07:37.126Z,96.75
2022-10-29T07:10:41.596Z,97.33
2022-10-29T07:13:44.454Z,97.02
2022-10-29T07:16:47.685Z,97.33
2022-10-29T07:19:50.284Z,97.33
2022-10-29T07:22:52.977Z,97.32
2022-10-29T07:25:57.057Z,96.92
2022-10-29T07:28:59.725Z,97.09
2022-10-29T07:32:02.377Z,97.38
2022-10-29T07:35:05.532Z,97.95
2022-10-29T07:38:11.069Z,97.96
2022-10-29T07:41:15.393Z,98.66
2022-10-29T07:44:18.018Z,99.08
2022-10-29T07:47:20.731Z,99.56
2022-10-29T07:50:23.451Z,99.36
2022-10-29T07:53:26.334Z,98.59
2022-10-29T07:56:30.300Z,97.57
2022-10-29T07:59:32.944Z,96.85
2022-10-29T08:02:35.516Z,95.35
2022-10-29T08:05:38.291Z,94.57
2022-10-29T08:08:41.035Z,94.76
2022-10-29T08:14:49.612Z,92.33
2022-10-29T08:17:52.661Z,91.78
2022-10-29T08:20:55.321Z,92.05
2022-10-29T08:23:58.017Z,91.32
2022-10-29T08:27:01.969Z,91.33
2022-10-29T08:30:05.631Z,91.55
2022-10-29T08:33:58.315Z,91.25
2022-10-29T08:37:00.930Z,91.07
2022-10-29T08:40:03.584Z,91.24
2022-10-29T08:43:35.750Z,89.27
2022-10-29T08:46:45.033Z,88.13
2022-10-29T08:49:52.536Z,87.96
2022-10-29T08:53:21.828Z,87.88
2022-10-29T08:56:23.323Z,87.31
2022-10-29T08:59:33.977Z,87.46
2022-10-29T09:02:36.612Z,87.54
2022-10-29T09:05:51.564Z,87.73
2022-10-29T09:09:11.774Z,87.67
2022-10-29T09:12:40.917Z,87.06
2022-10-29T09:16:02.118Z,86.37
2022-10-29T09:19:31.237Z,86.12
2022-10-29T09:22:42.531Z,83.09
2022-10-29T09:25:49.995Z,73.67
2022-10-29T09:29:03.720Z,64.20
2022-10-29T09:32:13.220Z,57.66
2022-10-29T09:35:18.218Z,53.63
2022-10-29T09:38:25.029Z,51.91
2022-10-29T09:41:32.063Z,52.09
2022-10-29T09:44:39.344Z,50.05
2022-10-29T09:47:49.921Z,47.16
2022-10-29T09:51:02.745Z,48.81
2022-10-29T09:54:06.093Z,51.42
2022-10-29T09:57:17.604Z,54.07
2022-10-29T10:00:23.518Z,55.47
2022-10-29T10:03:30.879Z,56.59
2022-10-29T10:07:04.452Z,58.55
2022-10-29T10:10:09.143Z,60.35
2022-10-29T10:13:17.137Z,62.12
2022-10-29T10:16:25.073Z,62.65
2022-10-29T10:19:30.384Z,62.14
2022-10-29T10:22:33.336Z,63.71
2022-10-29T10:25:39.002Z,64.03
2022-10-29T10:28:41.673Z,63.42
2022-10-29T10:31:46.295Z,62.76
2022-10-29T10:34:51.272Z,65.55
2022-10-29T10:37:54.384Z,65.26
2022-10-29T10:41:02.193Z,64.80
2022-10-29T10:44:06.764Z,64.42
2022-10-29T10:47:09.557Z,64.28
2022-10-29T10:50:19.325Z,64.87
2022-10-29T10:53:24.020Z,64.78
2022-10-29T10:56:26.711Z,66.07
2022-10-29T10:59:48.943Z,65.39
2022-10-29T11:02:57.193Z,65.69
2022-10-29T11:06:07.804Z,64.55
2022-10-29T11:09:19.555Z,66.19
2022-10-29T11:12:31.658Z,67.34
2022-10-29T11:15:40.045Z,65.30
2022-10-29T11:18:50.009Z,65.25
2022-10-29T11:22:02.536Z,67.55
2022-10-29T11:25:18.667Z,67.43
2022-10-29T11:28:27.127Z,65.35
2022-10-29T11:31:38.187Z,65.42
2022-10-29T11:34:50.279Z,63.83
2022-10-29T11:38:01.774Z,63.39
2022-10-29T11:41:23.517Z,62.78
2022-10-29T11:44:27.283Z,63.47
2022-10-29T11:47:49.683Z,65.67
2022-10-29T11:51:00.460Z,63.19
2022-10-29T11:54:12.909Z,64.35
2022-10-29T11:57:21.246Z,64.15
2022-10-29T12:00:25.112Z,64.50
2022-10-29T12:03:48.168Z,63.45
2022-10-29T12:07:03.622Z,62.93
2022-10-29T12:10:34.753Z,64.08
2022-10-29T12:13:50.304Z,65.11
2022-10-29T12:17:05.142Z,62.99
2022-10-29T12:20:22.070Z,63.63
2022-10-29T12:23:38.007Z,63.98
2022-10-29T12:26:47.252Z,59.71
2022-10-29T12:29:59.503Z,59.85
2022-10-29T12:33:11.499Z,59.64
2022-10-29T12:36:21.348Z,57.90
2022-10-29T12:39:30.152Z,57.51
2022-10-29T12:42:35.452Z,58.47
2022-10-29T12:46:14.287Z,58.81
2022-10-29T12:49:15.268Z,59.49
2022-10-29T12:52:24.216Z,58.99
2022-10-29T12:55:27.383Z,56.30
2022-10-29T12:58:49.773Z,56.93
2022-10-29T13:05:22.656Z,55.73
2022-10-29T13:08:35.112Z,55.99
2022-10-29T13:11:52.788Z,59.11
2022-10-29T13:15:12.245Z,58.84
2022-10-29T13:18:28.377Z,61.62
2022-10-29T13:22:14.051Z,61.41
2022-10-29T13:25:44.486Z,61.96
2022-10-29T13:29:12.539Z,62.12
2022-10-29T13:32:37.535Z,62.93
2022-10-29T13:35:47.115Z,64.51
2022-10-29T13:39:07.922Z,64.81
2022-10-29T13:42:16.306Z,64.17
2022-10-29T13:45:26.470Z,64.17
2022-10-29T13:48:37.781Z,64.05
2022-10-29T13:51:53.807Z,66.04
2022-10-29T13:55:07.905Z,65.91
2022-10-29T13:58:19.427Z,67.00
2022-10-29T14:01:29.039Z,67.74
2022-10-29T14:04:42.684Z,67.27
2022-10-29T14:08:05.425Z,67.70
2022-10-29T14:11:33.873Z,68.88
2022-10-29T14:15:14.615Z,68.39
2022-10-29T14:26:57.832Z,69.15
2022-10-29T14:30:24.212Z,69.75
2022-10-29T14:33:43.127Z,70.16
2022-10-29T14:37:05.588Z,71.07
2022-10-29T14:40:40.965Z,71.86
2022-10-29T14:44:15.089Z,75.05
2022-10-29T14:47:33.190Z,77.57
2022-10-29T14:50:56.791Z,79.54
2022-10-29T14:54:18.008Z,80.53
2022-10-29T14:57:35.745Z,80.88
2022-10-29T15:01:10.232Z,81.80
2022-10-29T15:04:40.055Z,82.97
2022-10-29T15:07:52.864Z,84.52
2022-10-29T15:11:10.628Z,85.06
2022-10-29T15:14:39.225Z,85.77
2022-10-29T15:17:57.747Z,86.21
2022-10-29T15:21:11.245Z,86.82
2022-10-29T15:24:28.884Z,87.36
2022-10-29T15:27:37.643Z,87.71
2022-10-29T15:30:46.975Z,87.68
2022-10-29T15:34:01.127Z,87.86
2022-10-29T15:37:30.040Z,88.18
2022-10-29T15:40:40.166Z,88.54
2022-10-29T15:43:53.731Z,88.71
2022-10-29T15:47:03.653Z,89.15
2022-10-29T15:50:13.089Z,89.15
2022-10-29T15:53:20.281Z,89.83
2022-10-29T15:56:27.909Z,89.92
2022-10-29T15:59:38.169Z,90.08
2022-10-29T16:02:46.544Z,90.20
2022-10-29T16:05:56.602Z,90.64
2022-10-29T16:09:05.836Z,90.27
2022-10-29T16:12:16.577Z,90.09
2022-10-29T16:18:35.671Z,90.76
2022-10-29T16:21:43.775Z,91.07
2022-10-29T16:24:49.704Z,91.54
2022-10-29T16:27:59.078Z,91.97
2022-10-29T16:31:19.171Z,91.87
2022-10-29T16:34:30.836Z,92.06
2022-10-29T16:37:54.146Z,92.35
2022-10-29T16:41:03.151Z,92.24
2022-10-29T16:44:10.859Z,92.31
2022-10-29T16:47:25.193Z,92.46
2022-10-29T16:50:37.841Z,92.56
2022-10-29T16:53:52.385Z,92.72
2022-10-29T16:57:05.963Z,92.45
2022-10-29T17:00:20.262Z,92.81
2022-10-29T17:03:47.220Z,92.93
2022-10-29T17:06:59.971Z,93.41
2022-10-29T17:10:26.103Z,93.80
2022-10-29T17:13:41.204Z,93.89
2022-10-29T17:21:01.026Z,94.44
2022-10-29T17:24:25.990Z,94.40
2022-10-29T17:27:34.320Z,94.58
2022-10-29T17:30:59.145Z,94.62
2022-10-29T17:37:53.594Z,95.09
2022-10-29T17:41:11.386Z,95.61
2022-10-29T17:44:22.818Z,95.69
2022-10-29T17:47:30.034Z,96.11
2022-10-29T17:54:05.931Z,95.68
2022-10-29T17:57:18.063Z,95.54
2022-10-29T18:00:27.653Z,95.82
2022-10-29T18:03:41.895Z,95.87
2022-10-29T18:06:47.992Z,95.94
2022-10-29T18:09:56.677Z,95.75
2022-10-29T18:13:05.888Z,95.87
2022-10-29T18:16:14.533Z,96.02
2022-10-29T18:19:22.851Z,96.28
2022-10-29T18:22:31.886Z,96.15
2022-10-29T18:25:41.950Z,96.37
2022-10-29T18:28:53.512Z,96.21
2022-10-29T18:32:02.024Z,96.68
2022-10-29T18:35:08.725Z,96.21
2022-10-29T18:38:16.223Z,96.42
2022-10-29T18:41:23.202Z,96.20
2022-10-29T18:44:31.609Z,96.58
2022-10-29T18:47:37.804Z,96.75
2022-10-29T18:50:43.543Z,96.63
2022-10-29T18:53:49.511Z,96.28
2022-10-29T18:56:56.836Z,96.00
2022-10-29T19:00:03.917Z,95.64
2022-10-29T19:03:10.231Z,96.35
2022-10-29T19:06:20.538Z,96.28
2022-10-29T19:09:26.783Z,96.15
2022-10-29T19:12:34.362Z,96.62
2022-10-29T19:15:44.740Z,96.75
2022-10-29T19:22:34.002Z,96.84
2022-10-29T19:29:22.154Z,97.27
2022-10-29T19:32:47.549Z,97.29
2022-10-29T19:36:10.479Z,97.85
2022-10-29T19:39:34.224Z,97.45
2022-10-29T19:42:57.965Z,97.19
2022-10-29T19:46:29.101Z,97.36
2022-10-29T19:49:46.350Z,97.28
2022-10-29T19:56:45.260Z,97.15
2022-10-29T20:03:31.456Z,97.09
2022-10-29T20:06:53.790Z,97.30
2022-10-29T20:10:02.320Z,96.54
2022-10-29T20:13:20.561Z,96.82
2022-10-29T20:16:34.263Z,97.06
2022-10-29T20:19:43.977Z,96.79
2022-10-29T20:23:09.985Z,96.83
2022-10-29T20:26:17.657Z,97.06
2022-10-29T20:29:36.927Z,96.95
2022-10-29T20:36:27.365Z,97.53
2022-10-29T20:39:40.867Z,97.68
2022-10-29T20:42:48.444Z,97.94
2022-10-29T20:46:03.841Z,97.12
2022-10-29T20:49:20.777Z,97.09
2022-10-29T20:52:28.239Z,96.86
2022-10-29T20:55:36.950Z,96.90
2022-10-29T20:59:02.339Z,96.86
2022-10-29T21:02:14.294Z,97.27
2022-10-29T21:05:27.066Z,96.92
2022-10-29T21:08:44.493Z,96.80
2022-10-29T21:11:58.505Z,96.82
2022-10-29T21:15:09.487Z,97.03
2022-10-29T21:18:24.512Z,97.06
2022-10-29T21:21:37.164Z,96.84
2022-10-29T21:24:45.539Z,97.07
2022-10-29T21:28:01.680Z,97.22
2022-10-29T21:34:30.729Z,96.87
2022-10-29T21:37:56.587Z,96.54
2022-10-29T21:41:10.536Z,97.14
2022-10-29T21:44:21.287Z,96.94
2022-10-29T21:47:36.895Z,96.83
2022-10-29T21:50:50.532Z,97.06
2022-10-29T21:54:07.555Z,96.95
2022-10-29T21:57:15.156Z,96.98
2022-10-29T22:00:31.965Z,97.26
2022-10-29T22:03:48.073Z,97.55
2022-10-29T22:07:01.687Z,97.39
2022-10-29T22:10:16.116Z,97.49
2022-10-29T22:13:24.075Z,97.41
2022-10-29T22:16:47.708Z,97.35
2022-10-29T22:19:59.895Z,97.38
2022-10-29T22:23:10.604Z,97.24
2022-10-29T22:26:24.376Z,97.49
2022-10-29T22:29:43.107Z,97.45
2022-10-29T22:33:09.393Z,97.76
2022-10-29T22:36:24.837Z,97.90
2022-10-29T22:39:34.208Z,97.36
2022-10-29T22:42:44.577Z,97.67
2022-10-29T22:45:57.096Z,98.25
2022-10-29T22:49:12.351Z,98.86
2022-10-29T22:52:25.467Z,98.47
2022-10-29T22:55:34.561Z,98.22
2022-10-29T22:58:40.695Z,98.52
2022-10-29T23:01:52.820Z,98.71
2022-10-29T23:05:01.051Z,98.92
2022-10-29T23:08:12.931Z,99.07
2022-10-29T23:11:28.852Z,98.90
2022-10-29T23:14:40.932Z,98.55
2022-10-29T23:17:46.323Z,98.67
2022-10-29T23:21:03.622Z,98.67
2022-10-29T23:24:18.081Z,98.23
2022-10-29T23:27:36.394Z,98.67
2022-10-29T23:31:04.408Z,98.70
2022-10-29T23:34:15.825Z,99.15
2022-10-29T23:41:26.749Z,99.20
2022-10-29T23:44:40.866Z,98.96
2022-10-29T23:47:57.065Z,98.88
2022-10-29T23:51:16.684Z,97.82
2022-10-29T23:54:35.704Z,97.67
2022-10-29T23:57:54.726Z,97.86
